deutsche Version english version türkçe versiyonu
 

Current weather

Dec 13, 2017 - 08:50 PM EST / 2017.12.14 0150 UTC


Wind: Calm:0

Visibility: greater than 7 mile(s):0
Temperature: 42 F (6 C)
Dew Point: 41 F (5 C)
Relative Humidity: 93%
Pressure (altimeter): 30.03 in. Hg (1017 hPa)
ob: LTAF 140150Z 00000KT CAVOK 06/05 Q1017 NOSIG

 

 
Copyright 2015© donnerwetter.de GmbH. All rights reserved.
Contact |  terms of use |  Legal notice